createdAt,value
2022-09-26T00:01:28.492Z,10.40
2022-09-26T00:03:58.726Z,10.42
2022-09-26T00:06:29.018Z,10.42
2022-09-26T00:08:57.385Z,10.44
2022-09-26T00:11:27.805Z,10.47
2022-09-26T00:13:57.672Z,10.44
2022-09-26T00:16:26.134Z,10.48
2022-09-26T00:18:55.794Z,10.53
2022-09-26T00:21:25.120Z,10.57
2022-09-26T00:23:55.176Z,10.63
2022-09-26T00:26:25.272Z,10.63
2022-09-26T00:28:54.059Z,10.66
2022-09-26T00:31:26.061Z,10.66
2022-09-26T00:33:53.963Z,10.67
2022-09-26T00:36:26.855Z,10.68
2022-09-26T00:39:07.229Z,10.68
2022-09-26T00:41:34.977Z,10.65
2022-09-26T00:44:02.933Z,10.62
2022-09-26T00:46:37.400Z,10.60
2022-09-26T00:49:15.389Z,10.58
2022-09-26T00:51:49.330Z,10.58
2022-09-26T00:54:20.545Z,10.58
2022-09-26T00:56:51.488Z,10.59
2022-09-26T00:59:26.133Z,10.62
2022-09-26T01:01:55.725Z,10.69
2022-09-26T01:04:25.990Z,10.73
2022-09-26T01:06:54.764Z,10.74
2022-09-26T01:09:24.117Z,10.77
2022-09-26T01:11:53.561Z,10.71
2022-09-26T01:14:22.275Z,10.76
2022-09-26T01:16:53.425Z,10.75
2022-09-26T01:19:27.076Z,10.80
2022-09-26T01:22:16.053Z,10.82
2022-09-26T01:24:57.145Z,10.84
2022-09-26T01:27:42.323Z,10.81
2022-09-26T01:30:16.274Z,10.80
2022-09-26T01:33:17.441Z,10.80
2022-09-26T01:36:12.060Z,10.80
2022-09-26T01:38:52.459Z,10.79
2022-09-26T01:41:42.902Z,10.75
2022-09-26T01:44:23.857Z,10.64
2022-09-26T01:46:57.685Z,10.58
2022-09-26T01:49:29.484Z,10.59
2022-09-26T01:52:04.324Z,10.62
2022-09-26T01:54:38.167Z,10.63
2022-09-26T01:57:14.384Z,10.63
2022-09-26T01:59:47.190Z,10.65
2022-09-26T02:02:26.122Z,10.67
2022-09-26T02:04:58.385Z,10.69
2022-09-26T02:07:35.163Z,10.68
2022-09-26T02:10:06.475Z,10.68
2022-09-26T02:12:37.117Z,10.70
2022-09-26T02:15:11.133Z,10.70
2022-09-26T02:17:44.957Z,10.73
2022-09-26T02:20:17.841Z,10.71
2022-09-26T02:22:46.810Z,10.75
2022-09-26T02:25:16.587Z,10.75
2022-09-26T02:27:44.376Z,10.70
2022-09-26T02:30:13.446Z,10.68
2022-09-26T02:32:43.041Z,10.66
2022-09-26T02:35:30.540Z,10.63
2022-09-26T02:37:59.259Z,10.60
2022-09-26T02:40:35.328Z,10.63
2022-09-26T02:43:27.761Z,10.64
2022-09-26T02:46:07.391Z,10.64
2022-09-26T02:48:49.261Z,10.63
2022-09-26T02:51:36.303Z,10.63
2022-09-26T02:54:16.837Z,10.62
2022-09-26T02:57:00.445Z,10.65
2022-09-26T02:59:35.011Z,10.64
2022-09-26T03:02:12.988Z,10.66
2022-09-26T03:04:50.530Z,10.66
2022-09-26T03:07:25.238Z,10.67
2022-09-26T03:09:55.451Z,10.66
2022-09-26T03:12:27.807Z,10.63
2022-09-26T03:14:58.788Z,10.66
2022-09-26T03:17:28.186Z,10.63
2022-09-26T03:20:02.603Z,10.64
2022-09-26T03:22:31.913Z,10.62
2022-09-26T03:25:01.210Z,10.64
2022-09-26T03:27:32.001Z,10.68
2022-09-26T03:30:00.657Z,10.73
2022-09-26T03:32:29.579Z,10.73
2022-09-26T03:34:58.930Z,10.71
2022-09-26T03:37:26.777Z,10.70
2022-09-26T03:39:55.703Z,10.71
2022-09-26T03:42:34.000Z,10.75
2022-09-26T03:45:02.479Z,10.76
2022-09-26T03:47:30.624Z,10.76
2022-09-26T03:50:00.058Z,10.76
2022-09-26T03:52:28.305Z,10.74
2022-09-26T03:54:56.145Z,10.74
2022-09-26T03:57:24.163Z,10.75
2022-09-26T03:59:57.994Z,10.71
2022-09-26T04:02:32.537Z,10.78
2022-09-26T04:05:16.311Z,10.80
2022-09-26T04:07:44.837Z,10.76
2022-09-26T04:10:13.177Z,10.75
2022-09-26T04:12:41.763Z,10.77
2022-09-26T04:15:11.258Z,10.81
2022-09-26T04:17:40.043Z,10.83
2022-09-26T04:20:09.622Z,10.81
2022-09-26T04:22:40.855Z,10.82
2022-09-26T04:25:10.141Z,10.84
2022-09-26T04:27:39.008Z,10.86
2022-09-26T04:30:07.864Z,10.81
2022-09-26T04:32:39.038Z,10.82
2022-09-26T04:35:29.786Z,10.85
2022-09-26T04:37:58.998Z,10.86
2022-09-26T04:40:27.970Z,10.84
2022-09-26T04:43:03.996Z,10.87
2022-09-26T04:45:31.904Z,10.85
2022-09-26T04:48:00.003Z,10.89
2022-09-26T04:50:28.844Z,10.88
2022-09-26T04:53:09.117Z,10.92
2022-09-26T04:55:55.407Z,10.97
2022-09-26T04:58:23.312Z,10.97
2022-09-26T05:00:52.511Z,10.97
2022-09-26T05:03:37.807Z,10.90
2022-09-26T05:06:08.905Z,10.96
2022-09-26T05:08:38.936Z,11.00
2022-09-26T05:11:07.399Z,10.92
2022-09-26T05:13:36.222Z,10.93
2022-09-26T05:16:05.537Z,10.91
2022-09-26T05:18:33.753Z,10.85
2022-09-26T05:21:03.272Z,10.89
2022-09-26T05:23:48.587Z,10.89
2022-09-26T05:26:23.644Z,10.89
2022-09-26T05:28:54.027Z,10.87
2022-09-26T05:31:29.030Z,10.92
2022-09-26T05:33:57.513Z,10.91
2022-09-26T05:36:28.183Z,10.94
2022-09-26T05:38:55.987Z,10.91
2022-09-26T05:41:28.155Z,10.99
2022-09-26T05:43:56.425Z,11.09
2022-09-26T05:46:25.797Z,11.07
2022-09-26T05:48:53.984Z,11.05
2022-09-26T05:51:24.420Z,11.14
2022-09-26T05:53:52.994Z,11.25
2022-09-26T05:56:25.229Z,11.30
2022-09-26T05:59:16.048Z,11.38
2022-09-26T06:02:06.395Z,11.42
2022-09-26T06:05:00.226Z,11.51
2022-09-26T06:07:41.534Z,11.64
2022-09-26T06:10:14.077Z,11.76
2022-09-26T06:12:52.867Z,11.86
2022-09-26T06:15:20.973Z,11.85
2022-09-26T06:17:49.201Z,11.87
2022-09-26T06:20:17.404Z,11.88
2022-09-26T06:22:45.232Z,11.94
2022-09-26T06:25:14.274Z,11.90
2022-09-26T06:27:42.473Z,11.82
2022-09-26T06:30:12.892Z,11.85
2022-09-26T06:32:41.876Z,11.95
2022-09-26T06:35:28.075Z,11.95
2022-09-26T06:38:05.771Z,12.04
2022-09-26T06:40:33.776Z,12.12
2022-09-26T06:43:02.014Z,12.14
2022-09-26T06:45:51.179Z,12.18
2022-09-26T06:48:25.293Z,12.31
2022-09-26T06:51:08.058Z,12.46
2022-09-26T06:53:36.484Z,12.58
2022-09-26T06:56:06.584Z,12.60
2022-09-26T06:58:34.540Z,12.73
2022-09-26T07:01:08.806Z,12.85
2022-09-26T07:03:45.702Z,12.85
2022-09-26T07:06:49.434Z,12.81
2022-09-26T07:09:17.741Z,12.92
2022-09-26T07:12:13.966Z,12.89
2022-09-26T07:14:43.388Z,12.98
2022-09-26T07:17:22.433Z,12.99
2022-09-26T07:20:25.361Z,13.09
2022-09-26T07:23:16.798Z,13.30
2022-09-26T07:25:46.329Z,13.36
2022-09-26T07:28:14.967Z,13.46
2022-09-26T07:30:46.835Z,13.58
2022-09-26T07:33:27.721Z,13.78
2022-09-26T07:36:01.879Z,13.90
2022-09-26T07:38:32.473Z,14.01
2022-09-26T07:41:01.165Z,14.07
2022-09-26T07:44:04.517Z,13.88
2022-09-26T07:46:37.896Z,13.70
2022-09-26T07:49:25.079Z,13.74
2022-09-26T07:52:11.526Z,13.65
2022-09-26T07:55:17.144Z,13.66
2022-09-26T07:57:52.704Z,13.70
2022-09-26T08:00:30.396Z,13.78
2022-09-26T08:03:13.901Z,14.01
2022-09-26T08:05:44.705Z,14.22
2022-09-26T08:08:13.103Z,14.32
2022-09-26T08:11:03.665Z,14.49
2022-09-26T08:13:51.083Z,14.63
2022-09-26T08:16:47.871Z,14.47
2022-09-26T08:19:17.444Z,14.63
2022-09-26T08:21:47.410Z,14.71
2022-09-26T08:24:15.374Z,14.67
2022-09-26T08:27:14.094Z,14.77
2022-09-26T08:29:48.497Z,15.01
2022-09-26T08:32:17.419Z,15.15
2022-09-26T08:34:46.588Z,15.19
2022-09-26T08:37:34.161Z,15.08
2022-09-26T08:40:27.931Z,15.30
2022-09-26T08:43:36.474Z,15.37
2022-09-26T08:46:45.022Z,15.26
2022-09-26T08:49:42.948Z,15.35
2022-09-26T08:52:29.453Z,15.24
2022-09-26T08:55:03.514Z,15.22
2022-09-26T08:57:39.653Z,15.57
2022-09-26T09:00:20.689Z,15.54
2022-09-26T09:03:12.272Z,15.61
2022-09-26T09:05:45.349Z,15.75
2022-09-26T09:08:16.347Z,15.72
2022-09-26T09:11:10.528Z,15.61
2022-09-26T09:13:56.835Z,15.46
2022-09-26T09:16:57.754Z,15.45
2022-09-26T09:19:53.816Z,15.56
2022-09-26T09:22:46.592Z,15.61
2022-09-26T09:25:24.417Z,15.35
2022-09-26T09:28:09.570Z,15.43
2022-09-26T09:30:44.671Z,15.45
2022-09-26T09:33:51.786Z,15.40
2022-09-26T09:36:56.993Z,15.61
2022-09-26T09:39:42.293Z,15.56
2022-09-26T09:42:24.961Z,15.34
2022-09-26T09:44:59.310Z,15.33
2022-09-26T09:47:29.057Z,15.43
2022-09-26T09:49:59.661Z,15.46
2022-09-26T09:52:56.182Z,15.49
2022-09-26T09:55:38.892Z,15.45
2022-09-26T09:58:27.448Z,15.64
2022-09-26T10:01:06.455Z,15.56
2022-09-26T10:03:40.216Z,15.43
2022-09-26T10:06:46.456Z,15.65
2022-09-26T10:08:57.952Z,15.91
2022-09-26T10:12:12.764Z,16.10
2022-09-26T10:15:20.600Z,16.07
2022-09-26T10:18:25.225Z,16.21
2022-09-26T10:21:13.305Z,16.26
2022-09-26T10:23:45.347Z,16.30
2022-09-26T10:26:34.426Z,16.35
2022-09-26T10:29:07.610Z,16.58
2022-09-26T10:31:42.277Z,16.37
2022-09-26T10:34:27.881Z,16.35
2022-09-26T10:36:56.821Z,16.23
2022-09-26T10:39:48.834Z,16.04
2022-09-26T10:42:19.955Z,16.11
2022-09-26T10:44:50.828Z,15.94
2022-09-26T10:47:24.904Z,15.58
2022-09-26T10:50:18.066Z,15.39
2022-09-26T10:53:08.889Z,15.12
2022-09-26T10:55:42.980Z,15.03
2022-09-26T10:58:19.015Z,14.95
2022-09-26T11:00:50.544Z,14.84
2022-09-26T11:03:27.023Z,14.75
2022-09-26T11:06:26.486Z,14.99
2022-09-26T11:09:03.287Z,15.06
2022-09-26T11:11:52.338Z,15.24
2022-09-26T11:14:29.100Z,15.44
2022-09-26T11:17:11.518Z,15.61
2022-09-26T11:19:54.525Z,16.02
2022-09-26T11:22:35.458Z,16.35
2022-09-26T11:27:58.962Z,16.71
2022-09-26T11:30:48.253Z,16.73
2022-09-26T11:33:22.551Z,16.54
2022-09-26T11:36:02.687Z,16.44
2022-09-26T11:41:38.539Z,16.13
2022-09-26T11:44:35.534Z,16.06
2022-09-26T11:47:50.149Z,16.12
2022-09-26T11:50:46.224Z,16.03
2022-09-26T11:53:36.013Z,15.92
2022-09-26T11:56:29.999Z,15.90
2022-09-26T11:59:11.111Z,15.64
2022-09-26T12:01:46.884Z,15.73
2022-09-26T12:04:42.771Z,15.53
2022-09-26T12:07:20.111Z,15.59
2022-09-26T12:10:14.605Z,15.61
2022-09-26T12:12:53.601Z,15.32
2022-09-26T12:15:27.894Z,15.25
2022-09-26T12:18:08.203Z,15.15
2022-09-26T12:20:42.504Z,15.08
2022-09-26T12:23:19.660Z,14.79
2022-09-26T12:25:58.662Z,14.73
2022-09-26T12:28:45.949Z,14.73
2022-09-26T12:31:20.767Z,14.78
2022-09-26T12:34:19.709Z,14.86
2022-09-26T12:37:04.156Z,14.84
2022-09-26T12:39:50.327Z,14.88
2022-09-26T12:42:34.248Z,14.88
2022-09-26T12:45:28.861Z,14.94
2022-09-26T12:48:12.726Z,14.99
2022-09-26T12:50:54.509Z,15.06
2022-09-26T12:53:35.680Z,15.10
2022-09-26T12:56:08.020Z,14.87
2022-09-26T12:58:51.597Z,14.96
2022-09-26T13:01:43.480Z,14.95
2022-09-26T13:04:53.822Z,15.01
2022-09-26T13:07:34.039Z,15.08
2022-09-26T13:10:16.330Z,15.09
2022-09-26T13:13:08.274Z,15.19
2022-09-26T13:15:43.800Z,15.19
2022-09-26T13:18:34.610Z,15.06
2022-09-26T13:21:10.018Z,15.13
2022-09-26T13:23:42.060Z,15.03
2022-09-26T13:26:15.238Z,15.06
2022-09-26T13:29:06.359Z,15.06
2022-09-26T13:31:40.698Z,15.15
2022-09-26T13:34:17.510Z,15.11
2022-09-26T13:36:46.593Z,15.05
2022-09-26T13:39:20.309Z,15.02
2022-09-26T13:41:55.089Z,15.01
2022-09-26T13:44:38.353Z,14.97
2022-09-26T13:47:15.947Z,14.95
2022-09-26T13:49:58.363Z,14.79
2022-09-26T13:52:42.676Z,14.65
2022-09-26T13:55:19.656Z,14.59
2022-09-26T13:58:03.661Z,14.59
2022-09-26T14:00:53.595Z,14.56
2022-09-26T14:03:39.962Z,14.54
2022-09-26T14:06:29.170Z,14.58
2022-09-26T14:09:25.159Z,14.39
2022-09-26T14:12:22.514Z,14.36
2022-09-26T14:15:17.039Z,14.38
2022-09-26T14:18:15.586Z,14.49
2022-09-26T14:21:08.143Z,14.58
2022-09-26T14:23:39.012Z,14.56
2022-09-26T14:26:10.260Z,14.57
2022-09-26T14:28:41.027Z,14.52
2022-09-26T14:31:34.605Z,14.43
2022-09-26T14:34:16.707Z,14.50
2022-09-26T14:36:46.603Z,14.46
2022-09-26T14:39:41.811Z,14.40
2022-09-26T14:42:15.517Z,14.47
2022-09-26T14:44:54.071Z,14.48
2022-09-26T14:47:22.552Z,14.46
2022-09-26T14:50:02.961Z,14.39
2022-09-26T14:52:31.650Z,14.22
2022-09-26T14:55:02.055Z,14.02
2022-09-26T14:57:32.937Z,13.94
2022-09-26T15:00:03.437Z,13.87
2022-09-26T15:02:40.192Z,13.81
2022-09-26T15:05:19.274Z,13.86
2022-09-26T15:07:49.589Z,13.82
2022-09-26T15:10:38.322Z,13.94
2022-09-26T15:13:19.572Z,14.07
2022-09-26T15:15:56.447Z,14.06
2022-09-26T15:18:35.638Z,14.12
2022-09-26T15:21:13.108Z,14.05
2022-09-26T15:23:49.810Z,14.08
2022-09-26T15:26:21.654Z,14.19
2022-09-26T15:28:51.675Z,14.18
2022-09-26T15:31:23.683Z,14.22
2022-09-26T15:33:55.795Z,14.21
2022-09-26T15:36:23.704Z,14.21
2022-09-26T15:38:51.560Z,14.24
2022-09-26T15:41:40.286Z,14.25
2022-09-26T15:44:08.757Z,14.20
2022-09-26T15:46:38.019Z,14.14
2022-09-26T15:49:15.015Z,14.14
2022-09-26T15:51:45.327Z,13.98
2022-09-26T15:54:21.710Z,13.82
2022-09-26T15:56:51.614Z,13.82
2022-09-26T15:59:25.549Z,13.83
2022-09-26T16:01:55.327Z,13.89
2022-09-26T16:04:25.277Z,13.93
2022-09-26T16:06:57.765Z,13.80
2022-09-26T16:09:31.647Z,13.90
2022-09-26T16:12:01.714Z,13.99
2022-09-26T16:14:41.572Z,13.96
2022-09-26T16:17:21.461Z,13.91
2022-09-26T16:19:51.001Z,13.93
2022-09-26T16:22:40.405Z,13.91
2022-09-26T16:25:34.195Z,13.79
2022-09-26T16:28:41.919Z,13.61
2022-09-26T16:31:18.223Z,13.63
2022-09-26T16:33:52.228Z,13.70
2022-09-26T16:36:26.176Z,13.67
2022-09-26T16:38:56.765Z,13.46
2022-09-26T16:41:56.266Z,13.63
2022-09-26T16:44:28.961Z,13.65
2022-09-26T16:47:03.087Z,13.57
2022-09-26T16:49:42.150Z,13.58
2022-09-26T16:52:21.337Z,13.57
2022-09-26T16:54:49.801Z,13.64
2022-09-26T16:57:22.487Z,13.61
2022-09-26T16:59:51.624Z,13.54
2022-09-26T17:02:18.842Z,13.53
2022-09-26T17:04:50.083Z,13.52
2022-09-26T17:07:17.999Z,13.45
2022-09-26T17:09:45.874Z,13.42
2022-09-26T17:12:19.090Z,13.41
2022-09-26T17:14:51.983Z,13.35
2022-09-26T17:17:22.955Z,13.35
2022-09-26T17:19:59.070Z,13.38
2022-09-26T17:22:28.947Z,13.36
2022-09-26T17:24:57.023Z,13.35
2022-09-26T17:27:27.407Z,13.36
2022-09-26T17:30:00.363Z,13.28
2022-09-26T17:32:31.590Z,13.29
2022-09-26T17:35:03.859Z,13.27
2022-09-26T17:37:32.037Z,13.27
2022-09-26T17:39:59.898Z,13.25
2022-09-26T17:42:30.299Z,13.24
2022-09-26T17:44:58.293Z,13.25
2022-09-26T17:47:26.803Z,13.22
2022-09-26T17:49:57.225Z,13.14
2022-09-26T17:52:30.041Z,13.14
2022-09-26T17:55:01.281Z,13.18
2022-09-26T17:57:33.947Z,13.19
2022-09-26T18:00:10.064Z,13.14
2022-09-26T18:02:43.541Z,13.19
2022-09-26T18:05:18.895Z,13.14
2022-09-26T18:07:51.915Z,13.14
2022-09-26T18:10:22.625Z,13.16
2022-09-26T18:12:57.261Z,13.17
2022-09-26T18:15:26.188Z,13.16
2022-09-26T18:17:54.283Z,13.20
2022-09-26T18:20:24.805Z,13.21
2022-09-26T18:22:54.477Z,13.21
2022-09-26T18:25:25.025Z,13.21
2022-09-26T18:27:56.647Z,13.18
2022-09-26T18:30:25.352Z,13.13
2022-09-26T18:32:56.413Z,13.15
2022-09-26T18:35:27.244Z,13.11
2022-09-26T18:37:56.969Z,13.11
2022-09-26T18:40:26.618Z,13.06
2022-09-26T18:42:55.324Z,13.10
2022-09-26T18:45:28.535Z,13.14
2022-09-26T18:47:57.003Z,13.09
2022-09-26T18:50:30.137Z,13.03
2022-09-26T18:52:59.403Z,13.05
2022-09-26T18:56:00.204Z,12.98
2022-09-26T18:58:28.655Z,12.94
2022-09-26T19:00:59.566Z,12.93
2022-09-26T19:03:29.882Z,12.90
2022-09-26T19:06:04.014Z,12.72
2022-09-26T19:08:37.336Z,12.73
2022-09-26T19:11:11.081Z,12.71
2022-09-26T19:13:38.909Z,12.71
2022-09-26T19:16:07.927Z,12.67
2022-09-26T19:18:36.113Z,12.65
2022-09-26T19:21:07.815Z,12.65
2022-09-26T19:23:37.953Z,12.61
2022-09-26T19:26:07.156Z,12.57
2022-09-26T19:28:37.224Z,12.55
2022-09-26T19:31:05.599Z,12.43
2022-09-26T19:33:33.858Z,12.49
2022-09-26T19:36:02.012Z,12.43
2022-09-26T19:38:29.871Z,12.48
2022-09-26T19:40:59.352Z,12.46
2022-09-26T19:43:27.392Z,12.46
2022-09-26T19:45:56.091Z,12.45
2022-09-26T19:48:24.785Z,12.39
2022-09-26T19:50:53.726Z,12.37
2022-09-26T19:53:23.625Z,12.39
2022-09-26T19:55:52.367Z,12.29
2022-09-26T19:58:23.067Z,12.26
2022-09-26T20:00:53.327Z,12.22
2022-09-26T20:03:23.479Z,12.28
2022-09-26T20:05:51.446Z,12.31
2022-09-26T20:08:22.058Z,12.35
2022-09-26T20:10:50.194Z,12.27
2022-09-26T20:13:18.868Z,12.27
2022-09-26T20:15:48.858Z,12.24
2022-09-26T20:18:20.655Z,12.24
2022-09-26T20:20:53.881Z,12.30
2022-09-26T20:23:24.261Z,12.30
2022-09-26T20:25:53.845Z,12.30
2022-09-26T20:28:22.411Z,12.33
2022-09-26T20:30:56.564Z,12.30
2022-09-26T20:33:26.844Z,12.33
2022-09-26T20:36:03.245Z,12.36
2022-09-26T20:38:35.713Z,12.34
2022-09-26T20:41:12.951Z,12.36
2022-09-26T20:43:42.643Z,12.31
2022-09-26T20:46:12.793Z,12.32
2022-09-26T20:48:44.085Z,12.30
2022-09-26T20:51:19.161Z,12.31
2022-09-26T20:53:47.165Z,12.30
2022-09-26T20:56:16.879Z,12.29
2022-09-26T20:58:45.034Z,12.21
2022-09-26T21:01:15.479Z,12.20
2022-09-26T21:03:45.215Z,12.22
2022-09-26T21:06:18.163Z,12.27
2022-09-26T21:08:46.554Z,12.28
2022-09-26T21:11:15.426Z,12.28
2022-09-26T21:13:43.774Z,12.25
2022-09-26T21:16:14.966Z,12.22
2022-09-26T21:18:45.310Z,12.21
2022-09-26T21:21:20.624Z,12.17
2022-09-26T21:24:18.074Z,12.17
2022-09-26T21:26:47.556Z,12.14
2022-09-26T21:29:18.133Z,12.15
2022-09-26T21:31:51.081Z,12.06
2022-09-26T21:34:21.512Z,12.09
2022-09-26T21:36:50.456Z,12.09
2022-09-26T21:39:19.998Z,12.05
2022-09-26T21:41:49.943Z,12.03
2022-09-26T21:44:22.905Z,12.01
2022-09-26T21:46:52.537Z,11.95
2022-09-26T21:49:20.653Z,12.01
2022-09-26T21:51:57.359Z,12.00
2022-09-26T21:54:29.212Z,11.97
2022-09-26T21:57:02.513Z,11.91
2022-09-26T21:59:31.503Z,11.85
2022-09-26T22:02:00.720Z,11.89
2022-09-26T22:04:28.920Z,11.89
2022-09-26T22:06:56.739Z,11.85
2022-09-26T22:09:24.586Z,11.88
2022-09-26T22:11:52.706Z,11.88
2022-09-26T22:14:20.562Z,11.88
2022-09-26T22:16:48.494Z,11.83
2022-09-26T22:19:17.765Z,11.87
2022-09-26T22:21:46.098Z,11.81
2022-09-26T22:24:14.330Z,11.80
2022-09-26T22:26:42.172Z,11.82
2022-09-26T22:29:09.979Z,11.75
2022-09-26T22:31:38.106Z,11.72
2022-09-26T22:34:06.050Z,11.71
2022-09-26T22:36:35.655Z,11.77
2022-09-26T22:39:03.659Z,11.79
2022-09-26T22:41:31.604Z,11.84
2022-09-26T22:43:59.463Z,11.76
2022-09-26T22:46:27.605Z,11.75
2022-09-26T22:48:56.424Z,11.74
2022-09-26T22:51:24.281Z,11.72
2022-09-26T22:53:58.034Z,11.71
2022-09-26T22:56:27.151Z,11.79
2022-09-26T22:58:55.042Z,11.79
2022-09-26T23:01:24.746Z,11.76
2022-09-26T23:03:54.050Z,11.78
2022-09-26T23:06:22.832Z,11.78
2022-09-26T23:08:51.049Z,11.78
2022-09-26T23:11:20.839Z,11.83
2022-09-26T23:13:50.943Z,11.80
2022-09-26T23:16:27.001Z,11.82
2022-09-26T23:18:58.385Z,11.82
2022-09-26T23:21:28.538Z,11.79
2022-09-26T23:24:02.277Z,11.82
2022-09-26T23:26:32.727Z,11.78
2022-09-26T23:29:01.332Z,11.77
2022-09-26T23:31:30.069Z,11.76
2022-09-26T23:33:58.585Z,11.76
2022-09-26T23:36:26.429Z,11.67
2022-09-26T23:38:55.056Z,11.68
2022-09-26T23:41:22.819Z,11.69
2022-09-26T23:43:51.995Z,11.68
2022-09-26T23:46:20.074Z,11.72
2022-09-26T23:48:48.088Z,11.80
2022-09-26T23:51:16.136Z,11.80
2022-09-26T23:53:43.929Z,11.82
2022-09-26T23:56:13.614Z,11.79
2022-09-26T23:58:42.150Z,11.80
